AirNav   Bose Proflight Series 2 Wireless Aviation Headset
 
 1195 users online  

PS81 Robert Packer Hospital Heliport
Sayre, Pennsylvania, USA

GOING TO SAYRE?


FAA INFORMATION EFFECTIVE 07 NOVEMBER 2019

Location

FAA Identifier: PS81
Lat/Long: 41-58-45.9800N 076-31-13.9300W
41-58.766333N 076-31.232167W
41.9794389,-76.5205361
(estimated)
Elevation: 780 ft. / 238 m (estimated)
Variation: 12W (2000)
Time zone: UTC -5 (UTC -4 during Daylight Saving Time)
Zip code: 18840

Heliport Operations

Heliport use: Private use. Permission required prior to landing
Activation date: 04/1986
Control tower: no
ARTCC: NEW YORK CENTER
FSS: WILLIAMSPORT FLIGHT SERVICE STATION
NOTAMs facility: FDC (NOTAM-D service not available)
Attendance: CONTINUOUS
Wind indicator: yes
Segmented circle: no
Beacon: white-green-yellow (heliport)
Operates sunset to sunrise.

Heliport Communications

UNICOM: 123.05
ELMIRA APPROACH: 128.425 [0600-0000]
ELMIRA DEPARTURE: 128.425 [0600-0000]
FOSUR DP: 128.425
WX AWOS-3 at N27 (15 nm S): 119.925 (570-265-1024)
WX ASOS at ELM (20 nm NW): PHONE 607-796-0065
WX AWOS-3 at CZG (20 nm E): 119.075 (607-785-2926)
  • APCH/DEP SVC PRVDD BY NEW YORK ARTCC (ZNY) ON 133.35/372.0 (SAYRE RCAG).

Nearby radio navigation aids

VOR radial/distance  VOR name  Freq  Var
CFBr248/20.2BINGHAMTON VOR/DME112.2010W
ULWr119/23.5ELMIRA VOR/DME109.6512W
ITHr195/31.1ITHACA VOR/DME111.8010W

 
NDB name  Hdg/Dist  Freq  Var  ID
ALPINE157/19.024512WALP .- .-.. .--.

Heliport Services

Runway Information

Helipad H3

Dimensions: 80 x 80 ft. / 24 x 24 m
Surface: asphalt/concrete
Runway edge lights: PERI
Operational restrictions: TLOF 30X30 FT, FATO 80X80 FT. INGRESS/EGRESS 150/330, 240/060.
Latitude: 41-59.074000N
Longitude: 076-30.881000W
Elevation: 771.0 ft.
Traffic pattern: leftleft

Helipad H1

Dimensions: 50 x 50 ft. / 15 x 15 m
Surface: asphalt/concrete, in fair condition
ELEVATED.
Runway edge lights: PERI
ACTVT PERIMETER LIGHTS - 123.05.
Latitude: 41-58.766333N
Longitude: 076-31.232167W
Elevation: 780.0 ft.
Traffic pattern: leftleft
Markings: none, in fair condition

Helipad H2

Dimensions: 50 x 50 ft. / 15 x 15 m
Surface: asphalt/concrete
Runway edge lights: PERI
Operational restrictions: TLOF 50X50 FT, FATO 50X50 FT. INGRESS/EGRESS 080/260, 160/340.
Latitude: 41-58.872500N
Longitude: 076-31.245333W
Elevation: 780.0 ft.
Traffic pattern: leftleft

Heliport Ownership and Management from official FAA records

Ownership: Privately-owned
Owner: ROBERT PACKER HOSPITAL
ONE GUTHRIE SQUARE
SAYRE, PA 18840
Phone 570-887-4740
Manager: RENNIE WOODHOUSE
ONE GUTHRIE SQUARE
SAYRE, PA 18840
Phone (570) 887-4740

Heliport Operational Statistics

Aircraft based on the field: 1
Helicopters: 1
    

Additional Remarks

FOR CD CTC NEW YORK ARTCC AT 631-468-1425.

Instrument Procedures

There are no published instrument procedures at PS81.

Some nearby airports with instrument procedures:

N27 - Bradford County Airport (15 nm S)
KELM - Elmira/Corning Regional Airport (20 nm NW)
KCZG - Tri-Cities Airport (20 nm E)
KBGM - Greater Binghamton Airport/Edwin A Link Field (28 nm NE)
KITH - Ithaca Tompkins Regional Airport (31 nm N)
 
Loc | Ops | Rwys | IFR | FBO | Links
Com | Nav | Svcs | Stats | Notes
Area around PS81 (Robert Packer Hospital Heliport)
 
Road maps at: MapQuest Bing Google
 
Aerial photo
No photo
 
Sectional chart

 
Airport distance calculator
Flying to Robert Packer Hospital Heliport? Find the distance to fly.

From to PS81

Sunrise and sunset
Times for 15-Nov-2019
 Local
(UTC-5)
 Zulu
(UTC)
Morning civil twilight06:2711:27
Sunrise06:5711:57
Sunset16:4421:44
Evening civil twilight17:1422:14

Current date and time
Zulu (UTC)  15-Nov-2019 21:38:42
Local (UTC-5)  15-Nov-2019 16:38:42
 
METAR
KELM 
20nm NW 
152053Z 26008G15KT 10SM OVC028 04/M02 A3020 RMK AO2 PK WND 30027/2006 SLP238 T00441017 51022
KBGM 
28nm NE 
152101Z 30011G19KT 10SM OVC030 02/M03 A3015 RMK AO2 T00221028
KITH 
29nm N 
152056Z 28012KT 10SM OVC020 02/M01 A3019 RMK AO2 SLP234 T00221011 53016
KN03 
39nm N 
152115Z AUTO 29005KT 10SM OVC015 01/00 A3019 RMK AO2
TAF
KELM 
20nm NW 
152028Z 1520/1618 28012KT P6SM FEW030 FM152200 30008KT P6SM BKN025 FM160800 01007KT P6SM SCT250 FM161300 04005KT P6SM SKC
NOTAMs
Click for the latest NOTAMs
NOTAMs are issued by the DoD/FAA and will open in a separate window not controlled by AirNav.

 

 
 

Would you like to see your business listed on this page?

 If your business provides an interesting product or service to pilots, flight crews, aircraft, or users of the Robert Packer Hospital Heliport, you should consider listing it here.  To start the listing process, click on the button below
 
Add a business
 

Other Pages about Robert Packer Hospital Heliport

Update a link
 
Copyright © AirNav, LLC. All rights reserved. Privacy Policy  Contact